createdAt,value
2023-04-10T00:01:09.009Z,16.10
2023-04-10T00:03:47.050Z,19.10
2023-04-10T00:06:19.943Z,19.10
2023-04-10T00:08:47.139Z,19.50
2023-04-10T00:11:14.095Z,18.80
2023-04-10T00:13:43.404Z,18.10
2023-04-10T00:16:10.948Z,17.30
2023-04-10T00:18:37.885Z,18.20
2023-04-10T00:21:05.551Z,18.40
2023-04-10T00:23:39.091Z,18.80
2023-04-10T00:26:12.157Z,20.70
2023-04-10T00:28:42.932Z,17.40
2023-04-10T00:31:18.496Z,17.60
2023-04-10T00:33:57.452Z,18.40
2023-04-10T00:36:28.338Z,22.90
2023-04-10T00:38:56.262Z,18.40
2023-04-10T00:41:28.863Z,18.70
2023-04-10T00:43:56.662Z,19.40
2023-04-10T00:46:23.855Z,19.30
2023-04-10T00:48:54.942Z,19.30
2023-04-10T00:51:22.482Z,20.70
2023-04-10T00:53:52.116Z,18.40
2023-04-10T00:56:20.209Z,21.10
2023-04-10T00:58:48.629Z,20.50
2023-04-10T01:01:15.506Z,19.30
2023-04-10T01:03:43.223Z,21.10
2023-04-10T01:06:38.153Z,20.10
2023-04-10T01:09:17.599Z,19.80
2023-04-10T01:12:21.423Z,18.50
2023-04-10T01:15:03.661Z,18.60
2023-04-10T01:17:50.627Z,24.40
2023-04-10T01:20:22.981Z,18.40
2023-04-10T01:23:47.717Z,18.70
2023-04-10T01:26:16.758Z,21.10
2023-04-10T01:28:53.252Z,19.80
2023-04-10T01:31:41.959Z,21.00
2023-04-10T01:34:16.271Z,19.60
2023-04-10T01:36:49.869Z,23.20
2023-04-10T01:39:18.615Z,21.30
2023-04-10T01:41:45.471Z,22.80
2023-04-10T01:44:14.644Z,21.00
2023-04-10T01:46:43.368Z,21.20
2023-04-10T01:49:11.395Z,20.70
2023-04-10T01:51:39.413Z,21.10
2023-04-10T01:54:13.793Z,25.40
2023-04-10T01:56:41.413Z,23.70
2023-04-10T01:59:08.477Z,25.00
2023-04-10T02:01:35.468Z,23.80
2023-04-10T02:04:03.080Z,22.00
2023-04-10T02:06:49.148Z,24.10
2023-04-10T02:09:45.610Z,27.00
2023-04-10T02:12:25.151Z,24.50
2023-04-10T02:14:58.666Z,25.30
2023-04-10T02:17:28.000Z,27.10
2023-04-10T02:19:58.196Z,26.00
2023-04-10T02:22:25.214Z,26.10
2023-04-10T02:24:53.603Z,26.70
2023-04-10T02:27:32.522Z,24.10
2023-04-10T02:30:02.835Z,24.20
2023-04-10T02:32:34.985Z,25.40
2023-04-10T02:35:02.636Z,24.20
2023-04-10T02:37:30.788Z,23.50
2023-04-10T02:39:59.148Z,23.00
2023-04-10T02:42:30.518Z,24.10
2023-04-10T02:44:58.665Z,24.60
2023-04-10T02:47:26.374Z,23.50
2023-04-10T02:49:53.562Z,24.50
2023-04-10T02:52:20.925Z,23.60
2023-04-10T02:54:48.636Z,26.80
2023-04-10T02:57:15.944Z,23.50
2023-04-10T02:59:42.888Z,24.90
2023-04-10T03:02:09.941Z,26.80
2023-04-10T03:04:37.114Z,23.60
2023-04-10T03:07:05.763Z,21.70
2023-04-10T03:09:33.111Z,24.20
2023-04-10T03:12:01.529Z,26.10
2023-04-10T03:14:28.477Z,25.40
2023-04-10T03:16:55.565Z,24.40
2023-04-10T03:19:22.833Z,22.40
2023-04-10T03:21:49.845Z,23.70
2023-04-10T03:24:16.940Z,26.00
2023-04-10T03:26:44.435Z,21.10
2023-04-10T03:29:12.028Z,22.20
2023-04-10T03:31:41.649Z,20.80
2023-04-10T03:34:09.118Z,22.20
2023-04-10T03:36:38.025Z,24.30
2023-04-10T03:39:05.392Z,23.20
2023-04-10T03:41:32.759Z,23.70
2023-04-10T03:44:02.665Z,23.90
2023-04-10T03:46:30.422Z,27.60
2023-04-10T03:48:57.547Z,26.20
2023-04-10T03:51:24.842Z,24.80
2023-04-10T03:53:52.337Z,26.50
2023-04-10T03:56:20.264Z,24.70
2023-04-10T03:58:47.822Z,27.00
2023-04-10T04:01:15.114Z,26.10
2023-04-10T04:04:01.118Z,26.50
2023-04-10T04:06:51.326Z,25.70
2023-04-10T04:09:29.945Z,29.90
2023-04-10T04:12:30.151Z,23.80
2023-04-10T04:15:09.892Z,28.10
2023-04-10T04:18:09.939Z,24.30
2023-04-10T04:20:48.202Z,25.60
2023-04-10T04:23:36.800Z,25.70
2023-04-10T04:26:03.770Z,25.60
2023-04-10T04:28:53.733Z,28.30
2023-04-10T04:31:20.640Z,25.10
2023-04-10T04:34:12.592Z,24.50
2023-04-10T04:36:59.269Z,23.80
2023-04-10T04:39:35.355Z,25.80
2023-04-10T04:42:05.159Z,25.60
2023-04-10T04:44:55.366Z,24.10
2023-04-10T04:47:40.810Z,23.50
2023-04-10T04:50:28.830Z,23.70
2023-04-10T04:52:56.205Z,23.80
2023-04-10T04:55:31.642Z,23.60
2023-04-10T04:58:20.671Z,21.10
2023-04-10T05:01:12.399Z,21.20
2023-04-10T05:04:08.801Z,44.40
2023-04-10T05:06:56.104Z,23.50
2023-04-10T05:09:44.088Z,22.30
2023-04-10T05:12:20.965Z,20.10
2023-04-10T05:14:59.305Z,24.70
2023-04-10T05:17:38.900Z,21.90
2023-04-10T05:20:28.794Z,22.80
2023-04-10T05:23:41.504Z,22.50
2023-04-10T05:26:32.123Z,23.80
2023-04-10T05:29:31.362Z,21.50
2023-04-10T05:32:17.641Z,21.20
2023-04-10T05:35:00.217Z,21.00
2023-04-10T05:37:45.007Z,23.40
2023-04-10T05:40:44.608Z,21.80
2023-04-10T05:43:35.979Z,22.70
2023-04-10T05:46:41.579Z,23.00
2023-04-10T05:49:24.424Z,24.00
2023-04-10T05:52:01.463Z,23.70
2023-04-10T05:54:46.853Z,22.70
2023-04-10T05:57:13.690Z,26.20
2023-04-10T05:59:59.466Z,23.70
2023-04-10T06:02:41.988Z,25.30
2023-04-10T06:05:15.083Z,24.00
2023-04-10T06:07:42.525Z,24.00
2023-04-10T06:10:10.116Z,21.70
2023-04-10T06:12:37.373Z,22.60
2023-04-10T06:15:07.084Z,23.20
2023-04-10T06:17:43.063Z,23.80
2023-04-10T06:20:11.449Z,22.50
2023-04-10T06:22:41.517Z,24.40
2023-04-10T06:25:10.908Z,24.50
2023-04-10T06:27:37.902Z,24.20
2023-04-10T06:30:10.886Z,23.10
2023-04-10T06:32:39.763Z,24.40
2023-04-10T06:35:06.862Z,26.50
2023-04-10T06:37:35.684Z,25.70
2023-04-10T06:40:06.760Z,22.30
2023-04-10T06:42:33.949Z,23.60
2023-04-10T06:45:07.770Z,26.70
2023-04-10T06:47:34.876Z,23.80
2023-04-10T06:50:03.378Z,22.30
2023-04-10T06:52:31.678Z,23.70
2023-04-10T06:54:58.473Z,21.90
2023-04-10T06:57:25.262Z,23.80
2023-04-10T06:59:55.654Z,24.30
2023-04-10T07:02:22.832Z,25.40
2023-04-10T07:04:49.789Z,26.10
2023-04-10T07:07:19.093Z,24.10
2023-04-10T07:09:46.012Z,25.50
2023-04-10T07:12:13.170Z,26.40
2023-04-10T07:14:43.127Z,26.50
2023-04-10T07:17:11.994Z,27.30
2023-04-10T07:19:38.804Z,24.80
2023-04-10T07:22:12.036Z,30.40
2023-04-10T07:24:41.823Z,24.80
2023-04-10T07:27:08.688Z,25.60
2023-04-10T07:29:36.982Z,26.30
2023-04-10T07:32:06.489Z,24.20
2023-04-10T07:34:34.050Z,25.90
2023-04-10T07:37:03.873Z,23.90
2023-04-10T07:39:33.876Z,22.70
2023-04-10T07:42:00.900Z,22.80
2023-04-10T07:44:30.474Z,22.00
2023-04-10T07:46:58.404Z,23.40
2023-04-10T07:49:25.324Z,19.40
2023-04-10T07:51:52.425Z,19.10
2023-04-10T07:54:19.252Z,15.50
2023-04-10T07:56:46.368Z,19.60
2023-04-10T07:59:13.367Z,18.30
2023-04-10T08:01:41.465Z,16.70
2023-04-10T08:04:08.727Z,16.30
2023-04-10T08:06:36.803Z,15.90
2023-04-10T08:09:03.679Z,15.70
2023-04-10T08:11:32.499Z,18.10
2023-04-10T08:14:01.230Z,14.30
2023-04-10T08:16:30.491Z,12.70
2023-04-10T08:18:58.338Z,11.20
2023-04-10T08:21:26.771Z,14.80
2023-04-10T08:23:54.325Z,14.10
2023-04-10T08:26:21.419Z,14.20
2023-04-10T08:28:50.367Z,12.60
2023-04-10T08:31:20.607Z,12.90
2023-04-10T08:33:47.677Z,12.90
2023-04-10T08:36:19.825Z,11.60
2023-04-10T08:38:47.583Z,13.80
2023-04-10T08:41:16.194Z,15.90
2023-04-10T08:43:49.051Z,13.40
2023-04-10T08:46:16.312Z,12.30
2023-04-10T08:48:59.525Z,12.50
2023-04-10T08:52:00.582Z,14.30
2023-04-10T08:54:28.502Z,14.40
2023-04-10T08:56:58.008Z,11.70
2023-04-10T08:59:25.015Z,12.50
2023-04-10T09:01:52.889Z,12.90
2023-04-10T09:04:20.393Z,13.20
2023-04-10T09:06:48.393Z,13.50
2023-04-10T09:09:19.112Z,12.70
2023-04-10T09:11:51.961Z,13.50
2023-04-10T09:14:20.863Z,14.30
2023-04-10T09:16:50.920Z,14.20
2023-04-10T09:19:31.203Z,13.00
2023-04-10T09:21:58.399Z,13.00
2023-04-10T09:24:25.453Z,14.90
2023-04-10T09:26:53.052Z,14.80
2023-04-10T09:29:20.536Z,15.80
2023-04-10T09:31:50.846Z,13.60
2023-04-10T09:34:21.793Z,15.20
2023-04-10T09:36:54.742Z,14.60
2023-04-10T09:39:35.550Z,13.90
2023-04-10T09:42:03.015Z,16.30
2023-04-10T09:44:32.172Z,16.10
2023-04-10T09:47:21.371Z,17.40
2023-04-10T09:49:53.593Z,16.70
2023-04-10T09:52:32.875Z,14.60
2023-04-10T09:55:09.224Z,17.40
2023-04-10T09:57:36.188Z,16.50
2023-04-10T10:00:09.985Z,15.40
2023-04-10T10:02:41.733Z,12.60
2023-04-10T10:05:10.367Z,13.70
2023-04-10T10:07:41.338Z,15.50
2023-04-10T10:10:08.549Z,12.00
2023-04-10T10:13:00.471Z,14.40
2023-04-10T10:15:27.209Z,11.70
2023-04-10T10:18:03.799Z,12.30
2023-04-10T10:20:31.510Z,11.80
2023-04-10T10:22:58.599Z,10.50
2023-04-10T10:25:25.935Z,10.10
2023-04-10T10:27:53.075Z,10.00
2023-04-10T10:30:29.632Z,8.20
2023-04-10T10:32:58.267Z,7.10
2023-04-10T10:35:31.377Z,7.00
2023-04-10T10:38:03.973Z,7.00
2023-04-10T10:40:45.604Z,6.60
2023-04-10T10:44:06.482Z,6.80
2023-04-10T10:46:50.637Z,6.20
2023-04-10T10:49:17.460Z,6.70
2023-04-10T10:51:48.634Z,6.40
2023-04-10T10:54:31.803Z,9.60
2023-04-10T10:57:08.550Z,5.30
2023-04-10T10:59:47.945Z,10.50
2023-04-10T11:02:19.060Z,6.40
2023-04-10T11:04:47.788Z,6.50
2023-04-10T11:07:15.388Z,5.60
2023-04-10T11:09:53.294Z,7.80
2023-04-10T11:12:23.651Z,6.60
2023-04-10T11:15:06.252Z,6.50
2023-04-10T11:17:50.630Z,4.60
2023-04-10T11:20:21.308Z,6.70
2023-04-10T11:23:10.655Z,4.20
2023-04-10T11:25:46.326Z,4.10
2023-04-10T11:28:32.305Z,5.70
2023-04-10T11:31:21.226Z,6.30
2023-04-10T11:34:09.968Z,6.30
2023-04-10T11:36:41.316Z,5.20
2023-04-10T11:39:20.962Z,7.00
2023-04-10T11:41:51.673Z,7.00
2023-04-10T11:44:34.755Z,5.00
2023-04-10T11:47:01.869Z,4.50
2023-04-10T11:49:33.827Z,9.40
2023-04-10T11:52:02.832Z,7.50
2023-04-10T11:54:30.695Z,6.50
2023-04-10T11:57:00.851Z,7.50
2023-04-10T11:59:28.035Z,8.50
2023-04-10T12:02:14.306Z,7.00
2023-04-10T12:04:43.295Z,8.60
2023-04-10T12:07:11.292Z,11.00
2023-04-10T12:09:38.213Z,8.50
2023-04-10T12:12:11.994Z,13.10
2023-04-10T12:14:41.913Z,12.00
2023-04-10T12:17:12.423Z,11.30
2023-04-10T12:19:52.860Z,13.00
2023-04-10T12:22:19.995Z,12.80
2023-04-10T12:24:49.406Z,10.90
2023-04-10T12:27:18.346Z,12.30
2023-04-10T12:29:46.195Z,12.40
2023-04-10T12:32:13.179Z,14.80
2023-04-10T12:34:40.321Z,13.60
2023-04-10T12:37:07.410Z,16.40
2023-04-10T12:39:36.749Z,16.00
2023-04-10T12:42:20.579Z,15.20
2023-04-10T12:45:00.407Z,15.20
2023-04-10T12:47:28.313Z,13.40
2023-04-10T12:50:11.145Z,10.50
2023-04-10T12:52:40.757Z,8.80
2023-04-10T12:55:14.169Z,14.80
2023-04-10T12:57:42.264Z,15.70
2023-04-10T13:00:10.537Z,18.70
2023-04-10T13:02:39.174Z,18.70
2023-04-10T13:05:07.311Z,14.60
2023-04-10T13:07:35.892Z,15.50
2023-04-10T13:10:03.080Z,13.70
2023-04-10T13:12:34.156Z,12.10
2023-04-10T13:15:02.357Z,11.20
2023-04-10T13:17:29.842Z,13.90
2023-04-10T13:19:57.882Z,12.30
2023-04-10T13:22:25.107Z,10.50
2023-04-10T13:24:52.079Z,11.30
2023-04-10T13:27:24.583Z,14.10
2023-04-10T13:29:51.526Z,9.90
2023-04-10T13:32:18.518Z,9.50
2023-04-10T13:34:46.353Z,10.30
2023-04-10T13:37:14.835Z,10.00
2023-04-10T13:39:43.220Z,9.80
2023-04-10T13:42:11.544Z,10.90
2023-04-10T13:44:39.638Z,16.20
2023-04-10T13:47:07.520Z,17.70
2023-04-10T13:49:36.374Z,17.20
2023-04-10T13:52:03.543Z,11.10
2023-04-10T13:54:31.322Z,9.90
2023-04-10T13:56:58.817Z,11.10
2023-04-10T13:59:27.170Z,12.40
2023-04-10T14:01:54.269Z,14.10
2023-04-10T14:04:21.783Z,11.70
2023-04-10T14:06:51.240Z,14.20
2023-04-10T14:09:19.099Z,14.30
2023-04-10T14:11:46.502Z,11.80
2023-04-10T14:14:14.234Z,13.20
2023-04-10T14:16:41.557Z,13.70
2023-04-10T14:19:08.665Z,12.40
2023-04-10T14:21:43.845Z,12.80
2023-04-10T14:24:10.842Z,14.60
2023-04-10T14:26:37.811Z,13.30
2023-04-10T14:29:07.987Z,12.60
2023-04-10T14:31:39.198Z,11.70
2023-04-10T14:34:12.088Z,13.70
2023-04-10T14:36:39.477Z,12.20
2023-04-10T14:39:06.849Z,12.40
2023-04-10T14:41:35.990Z,14.90
2023-04-10T14:44:02.967Z,12.80
2023-04-10T14:46:30.270Z,10.20
2023-04-10T14:48:57.159Z,11.90
2023-04-10T14:51:24.051Z,13.60
2023-04-10T14:53:52.690Z,14.60
2023-04-10T14:56:20.040Z,13.10
2023-04-10T14:58:47.724Z,13.60
2023-04-10T15:01:14.673Z,11.80
2023-04-10T15:03:41.579Z,13.20
2023-04-10T15:06:09.569Z,12.80
2023-04-10T15:08:36.708Z,14.60
2023-04-10T15:11:06.500Z,14.40
2023-04-10T15:13:34.053Z,10.20
2023-04-10T15:16:01.508Z,10.90
2023-04-10T15:18:29.121Z,14.60
2023-04-10T15:20:57.159Z,9.70
2023-04-10T15:23:25.301Z,13.00
2023-04-10T15:25:59.358Z,10.70
2023-04-10T15:28:27.640Z,13.00
2023-04-10T15:30:54.736Z,12.90
2023-04-10T15:33:23.469Z,13.40
2023-04-10T15:35:50.257Z,13.50
2023-04-10T15:38:17.391Z,13.70
2023-04-10T15:40:44.738Z,21.50
2023-04-10T15:43:13.583Z,18.90
2023-04-10T15:45:40.940Z,16.10
2023-04-10T15:48:08.354Z,24.70
2023-04-10T15:50:36.792Z,23.50
2023-04-10T15:53:03.833Z,19.50
2023-04-10T15:55:30.961Z,13.30
2023-04-10T15:57:59.423Z,15.00
2023-04-10T16:00:27.577Z,15.10
2023-04-10T16:02:54.738Z,15.50
2023-04-10T16:05:23.142Z,15.60
2023-04-10T16:07:51.498Z,15.40
2023-04-10T16:10:18.299Z,16.50
2023-04-10T16:12:48.025Z,14.00
2023-04-10T16:15:16.216Z,13.20
2023-04-10T16:17:43.355Z,14.00
2023-04-10T16:20:13.695Z,14.90
2023-04-10T16:22:41.869Z,15.70
2023-04-10T16:25:09.168Z,21.40
2023-04-10T16:27:37.879Z,21.20
2023-04-10T16:30:06.097Z,28.10
2023-04-10T16:32:34.689Z,41.40
2023-04-10T16:35:01.852Z,42.80
2023-04-10T16:37:29.586Z,42.60
2023-04-10T16:40:01.983Z,37.50
2023-04-10T16:42:30.409Z,36.90
2023-04-10T16:44:58.089Z,34.70
2023-04-10T16:47:27.483Z,29.20
2023-04-10T16:49:55.195Z,25.60
2023-04-10T16:52:23.198Z,25.00
2023-04-10T16:54:50.078Z,32.20
2023-04-10T16:57:17.081Z,23.20
2023-04-10T16:59:46.674Z,23.60
2023-04-10T17:02:14.354Z,25.50
2023-04-10T17:04:41.622Z,23.40
2023-04-10T17:07:10.177Z,23.80
2023-04-10T17:09:37.422Z,25.50
2023-04-10T17:12:04.385Z,25.60
2023-04-10T17:14:36.494Z,25.90
2023-04-10T17:17:03.482Z,31.90
2023-04-10T17:19:31.180Z,55.80
2023-04-10T17:21:58.049Z,37.60
2023-04-10T17:24:30.805Z,43.50
2023-04-10T17:26:57.782Z,40.70
2023-04-10T17:29:25.370Z,36.10
2023-04-10T17:31:52.385Z,35.30
2023-04-10T17:34:19.289Z,34.40
2023-04-10T17:36:49.375Z,36.60
2023-04-10T17:39:16.590Z,35.30
2023-04-10T17:41:43.393Z,38.60
2023-04-10T17:44:10.853Z,40.20
2023-04-10T17:46:37.688Z,36.50
2023-04-10T17:49:06.475Z,40.40
2023-04-10T17:51:34.229Z,42.40
2023-04-10T17:54:01.039Z,41.00
2023-04-10T17:56:28.782Z,40.80
2023-04-10T17:58:56.038Z,39.50
2023-04-10T18:01:25.240Z,39.60
2023-04-10T18:03:52.547Z,34.30
2023-04-10T18:06:19.657Z,37.20
2023-04-10T18:08:47.370Z,36.60
2023-04-10T18:11:14.447Z,35.70
2023-04-10T18:13:41.302Z,35.10
2023-04-10T18:16:13.949Z,39.90
2023-04-10T18:18:43.731Z,38.80
2023-04-10T18:21:10.736Z,45.70
2023-04-10T18:23:39.723Z,53.20
2023-04-10T18:26:06.770Z,62.40
2023-04-10T18:28:35.272Z,69.30
2023-04-10T18:31:02.226Z,76.50
2023-04-10T18:33:29.518Z,65.70
2023-04-10T18:35:58.155Z,66.20
2023-04-10T18:38:25.968Z,63.60
2023-04-10T18:40:56.426Z,66.50
2023-04-10T18:43:29.905Z,68.80
2023-04-10T18:46:02.419Z,74.00
2023-04-10T18:48:30.057Z,70.80
2023-04-10T18:50:56.850Z,64.50
2023-04-10T18:53:23.674Z,62.30
2023-04-10T18:55:51.367Z,53.80
2023-04-10T18:58:19.288Z,47.20
2023-04-10T19:00:46.999Z,48.30
2023-04-10T19:03:16.336Z,49.40
2023-04-10T19:05:46.085Z,45.20
2023-04-10T19:08:15.247Z,35.30
2023-04-10T19:10:42.780Z,31.90
2023-04-10T19:13:11.355Z,28.40
2023-04-10T19:15:43.296Z,27.50
2023-04-10T19:18:12.399Z,25.10
2023-04-10T19:20:52.818Z,27.30
2023-04-10T19:23:23.306Z,25.90
2023-04-10T19:25:54.788Z,26.00
2023-04-10T19:28:22.539Z,24.00
2023-04-10T19:31:09.471Z,23.20
2023-04-10T19:33:38.694Z,24.20
2023-04-10T19:36:08.356Z,20.20
2023-04-10T19:38:35.846Z,22.30
2023-04-10T19:41:14.592Z,22.70
2023-04-10T19:43:41.556Z,21.50
2023-04-10T19:46:18.437Z,20.70
2023-04-10T19:48:48.081Z,28.80
2023-04-10T19:51:16.108Z,21.10
2023-04-10T19:53:44.244Z,22.60
2023-04-10T19:56:11.088Z,21.40
2023-04-10T19:58:56.149Z,20.30
2023-04-10T20:01:25.279Z,22.90
2023-04-10T20:03:53.365Z,18.10
2023-04-10T20:06:21.164Z,21.10
2023-04-10T20:08:49.033Z,22.30
2023-04-10T20:11:15.847Z,19.80
2023-04-10T20:13:49.631Z,20.80
2023-04-10T20:16:16.541Z,21.00
2023-04-10T20:18:43.679Z,21.20
2023-04-10T20:21:10.573Z,20.50
2023-04-10T20:23:38.415Z,23.40
2023-04-10T20:26:05.683Z,20.00
2023-04-10T20:28:33.293Z,22.70
2023-04-10T20:31:00.498Z,22.90
2023-04-10T20:33:27.522Z,21.70
2023-04-10T20:35:54.384Z,22.70
2023-04-10T20:38:22.018Z,20.10
2023-04-10T20:40:48.940Z,21.40
2023-04-10T20:43:18.011Z,20.20
2023-04-10T20:45:45.441Z,20.50
2023-04-10T20:48:12.267Z,21.40
2023-04-10T20:50:48.750Z,17.40
2023-04-10T20:53:15.934Z,19.60
2023-04-10T20:55:43.294Z,18.60
2023-04-10T20:58:10.060Z,19.60
2023-04-10T21:00:40.920Z,20.40
2023-04-10T21:03:08.425Z,21.40
2023-04-10T21:05:40.396Z,21.20
2023-04-10T21:08:08.867Z,21.50
2023-04-10T21:10:43.232Z,20.60
2023-04-10T21:13:15.089Z,20.80
2023-04-10T21:15:45.212Z,20.70
2023-04-10T21:18:12.308Z,20.50
2023-04-10T21:20:49.907Z,19.40
2023-04-10T21:23:17.100Z,20.80
2023-04-10T21:25:54.915Z,21.20
2023-04-10T21:28:21.901Z,18.60
2023-04-10T21:30:49.094Z,18.40
2023-04-10T21:33:16.968Z,19.90
2023-04-10T21:35:44.297Z,18.30
2023-04-10T21:38:11.449Z,17.10
2023-04-10T21:40:38.531Z,20.20
2023-04-10T21:43:05.897Z,19.80
2023-04-10T21:45:36.868Z,19.40
2023-04-10T21:48:04.106Z,21.10
2023-04-10T21:50:31.113Z,21.00
2023-04-10T21:53:02.283Z,21.10
2023-04-10T21:55:29.405Z,22.20
2023-04-10T21:57:57.251Z,21.80
2023-04-10T22:00:24.316Z,19.20
2023-04-10T22:02:52.748Z,20.20
2023-04-10T22:05:20.331Z,18.00
2023-04-10T22:07:47.172Z,20.30
2023-04-10T22:10:14.265Z,20.90
2023-04-10T22:12:48.168Z,19.20
2023-04-10T22:15:18.768Z,21.20
2023-04-10T22:17:47.072Z,23.90
2023-04-10T22:20:16.138Z,19.10
2023-04-10T22:22:43.396Z,20.20
2023-04-10T22:25:10.413Z,20.80
2023-04-10T22:27:38.108Z,20.10
2023-04-10T22:30:06.560Z,19.90
2023-04-10T22:32:35.452Z,18.40
2023-04-10T22:35:04.257Z,21.30
2023-04-10T22:37:31.616Z,18.70
2023-04-10T22:40:00.065Z,19.00
2023-04-10T22:42:28.849Z,16.50
2023-04-10T22:44:57.549Z,19.60
2023-04-10T22:47:24.396Z,22.60
2023-04-10T22:49:52.271Z,20.80
2023-04-10T22:52:21.333Z,20.80
2023-04-10T22:54:48.601Z,22.40
2023-04-10T22:57:15.418Z,21.00
2023-04-10T22:59:43.979Z,21.20
2023-04-10T23:04:38.512Z,20.30
2023-04-10T23:07:06.037Z,19.70
2023-04-10T23:09:32.798Z,19.40
2023-04-10T23:12:04.772Z,19.30
2023-04-10T23:14:35.227Z,20.60
2023-04-10T23:17:02.286Z,19.10
2023-04-10T23:19:35.145Z,21.50
2023-04-10T23:22:02.415Z,21.20
2023-04-10T23:24:29.968Z,20.70
2023-04-10T23:27:06.237Z,21.20
2023-04-10T23:29:33.908Z,22.70
2023-04-10T23:32:00.784Z,22.80
2023-04-10T23:34:29.469Z,22.60
2023-04-10T23:36:57.591Z,23.10
2023-04-10T23:39:24.436Z,20.50
2023-04-10T23:41:55.403Z,19.10
2023-04-10T23:44:22.837Z,21.90
2023-04-10T23:46:50.184Z,20.60
2023-04-10T23:49:17.605Z,18.90
2023-04-10T23:51:44.692Z,21.60
2023-04-10T23:54:12.761Z,21.30
2023-04-10T23:56:40.173Z,21.00
2023-04-10T23:59:06.923Z,21.20
